sensor_id;sensor_type;location;lat;lon;timestamp;P1;durP1;ratioP1;P2;durP2;ratioP2
8230;SDS011;4156;50.908;6.974;2024-02-26T00:00:37;1.60;;;1.47;;
8230;SDS011;4156;50.908;6.974;2024-02-26T00:03:03;1.57;;;1.47;;
8230;SDS011;4156;50.908;6.974;2024-02-26T00:05:30;1.83;;;1.50;;
8230;SDS011;4156;50.908;6.974;2024-02-26T00:07:56;1.97;;;1.67;;
8230;SDS011;4156;50.908;6.974;2024-02-26T00:10:22;1.97;;;1.73;;
8230;SDS011;4156;50.908;6.974;2024-02-26T00:12:49;1.80;;;1.43;;
8230;SDS011;4156;50.908;6.974;2024-02-26T00:15:15;1.60;;;1.40;;
8230;SDS011;4156;50.908;6.974;2024-02-26T00:17:41;1.50;;;1.40;;
8230;SDS011;4156;50.908;6.974;2024-02-26T00:20:07;1.60;;;1.40;;
8230;SDS011;4156;50.908;6.974;2024-02-26T00:22:33;2.63;;;2.33;;
8230;SDS011;4156;50.908;6.974;2024-02-26T00:25:00;2.50;;;2.03;;
8230;SDS011;4156;50.908;6.974;2024-02-26T00:27:26;2.13;;;1.43;;
8230;SDS011;4156;50.908;6.974;2024-02-26T00:29:52;2.03;;;1.50;;
8230;SDS011;4156;50.908;6.974;2024-02-26T00:32:18;1.57;;;1.40;;
8230;SDS011;4156;50.908;6.974;2024-02-26T00:34:44;3.17;;;1.67;;
8230;SDS011;4156;50.908;6.974;2024-02-26T00:37:10;1.67;;;1.40;;
8230;SDS011;4156;50.908;6.974;2024-02-26T00:39:36;2.67;;;1.50;;
8230;SDS011;4156;50.908;6.974;2024-02-26T00:42:02;1.70;;;1.43;;
8230;SDS011;4156;50.908;6.974;2024-02-26T00:44:28;1.37;;;1.20;;
8230;SDS011;4156;50.908;6.974;2024-02-26T00:46:54;1.40;;;1.30;;
8230;SDS011;4156;50.908;6.974;2024-02-26T00:49:20;1.73;;;1.33;;
8230;SDS011;4156;50.908;6.974;2024-02-26T00:51:46;1.90;;;1.50;;
8230;SDS011;4156;50.908;6.974;2024-02-26T00:54:12;1.17;;;1.17;;
8230;SDS011;4156;50.908;6.974;2024-02-26T00:56:38;1.07;;;1.07;;
8230;SDS011;4156;50.908;6.974;2024-02-26T00:59:04;1.73;;;1.30;;
8230;SDS011;4156;50.908;6.974;2024-02-26T01:01:31;1.43;;;1.30;;
8230;SDS011;4156;50.908;6.974;2024-02-26T01:03:57;1.40;;;1.30;;
8230;SDS011;4156;50.908;6.974;2024-02-26T01:06:23;1.27;;;1.17;;
8230;SDS011;4156;50.908;6.974;2024-02-26T01:08:49;1.23;;;1.13;;
8230;SDS011;4156;50.908;6.974;2024-02-26T01:11:15;1.77;;;1.40;;
8230;SDS011;4156;50.908;6.974;2024-02-26T01:13:41;1.43;;;1.20;;
8230;SDS011;4156;50.908;6.974;2024-02-26T01:16:07;1.40;;;1.30;;
8230;SDS011;4156;50.908;6.974;2024-02-26T01:18:33;1.53;;;1.30;;
8230;SDS011;4156;50.908;6.974;2024-02-26T01:20:59;1.33;;;1.23;;
8230;SDS011;4156;50.908;6.974;2024-02-26T01:23:25;1.40;;;1.30;;
8230;SDS011;4156;50.908;6.974;2024-02-26T01:25:51;1.33;;;1.23;;
8230;SDS011;4156;50.908;6.974;2024-02-26T01:28:17;1.40;;;1.30;;
8230;SDS011;4156;50.908;6.974;2024-02-26T01:30:43;1.53;;;1.43;;
8230;SDS011;4156;50.908;6.974;2024-02-26T01:33:09;1.30;;;1.20;;
8230;SDS011;4156;50.908;6.974;2024-02-26T01:35:35;1.40;;;1.30;;
8230;SDS011;4156;50.908;6.974;2024-02-26T01:38:01;1.20;;;1.10;;
8230;SDS011;4156;50.908;6.974;2024-02-26T01:40:27;1.20;;;1.10;;
8230;SDS011;4156;50.908;6.974;2024-02-26T01:42:54;1.27;;;1.10;;
8230;SDS011;4156;50.908;6.974;2024-02-26T01:45:20;2.10;;;1.30;;
8230;SDS011;4156;50.908;6.974;2024-02-26T01:47:51;1.67;;;1.30;;
8230;SDS011;4156;50.908;6.974;2024-02-26T01:50:18;1.70;;;1.10;;
8230;SDS011;4156;50.908;6.974;2024-02-26T01:52:45;2.97;;;1.23;;
8230;SDS011;4156;50.908;6.974;2024-02-26T01:55:12;1.93;;;1.30;;
8230;SDS011;4156;50.908;6.974;2024-02-26T01:57:39;1.33;;;1.20;;
8230;SDS011;4156;50.908;6.974;2024-02-26T02:00:06;1.37;;;1.27;;
8230;SDS011;4156;50.908;6.974;2024-02-26T02:02:32;1.23;;;1.20;;
8230;SDS011;4156;50.908;6.974;2024-02-26T02:04:58;1.57;;;1.40;;
8230;SDS011;4156;50.908;6.974;2024-02-26T02:07:24;1.33;;;1.23;;
8230;SDS011;4156;50.908;6.974;2024-02-26T02:09:51;2.80;;;1.30;;
8230;SDS011;4156;50.908;6.974;2024-02-26T02:12:17;1.20;;;1.10;;
8230;SDS011;4156;50.908;6.974;2024-02-26T02:14:44;1.60;;;1.20;;
8230;SDS011;4156;50.908;6.974;2024-02-26T02:17:10;2.93;;;1.60;;
8230;SDS011;4156;50.908;6.974;2024-02-26T02:19:36;1.50;;;1.40;;
8230;SDS011;4156;50.908;6.974;2024-02-26T02:22:02;2.47;;;1.20;;
8230;SDS011;4156;50.908;6.974;2024-02-26T02:24:28;1.30;;;1.20;;
8230;SDS011;4156;50.908;6.974;2024-02-26T02:26:55;1.63;;;1.50;;
8230;SDS011;4156;50.908;6.974;2024-02-26T02:29:21;2.00;;;1.47;;
8230;SDS011;4156;50.908;6.974;2024-02-26T02:31:47;1.60;;;1.40;;
8230;SDS011;4156;50.908;6.974;2024-02-26T02:34:13;1.27;;;1.17;;
8230;SDS011;4156;50.908;6.974;2024-02-26T02:36:49;1.53;;;1.40;;
8230;SDS011;4156;50.908;6.974;2024-02-26T02:39:15;1.40;;;1.20;;
8230;SDS011;4156;50.908;6.974;2024-02-26T02:41:41;1.37;;;1.23;;
8230;SDS011;4156;50.908;6.974;2024-02-26T02:44:07;1.90;;;1.40;;
8230;SDS011;4156;50.908;6.974;2024-02-26T02:46:33;1.50;;;1.40;;
8230;SDS011;4156;50.908;6.974;2024-02-26T02:49:00;1.30;;;1.20;;
8230;SDS011;4156;50.908;6.974;2024-02-26T02:51:26;1.77;;;1.40;;
8230;SDS011;4156;50.908;6.974;2024-02-26T02:53:52;1.27;;;1.17;;
8230;SDS011;4156;50.908;6.974;2024-02-26T02:56:18;1.30;;;1.20;;
8230;SDS011;4156;50.908;6.974;2024-02-26T02:58:44;1.30;;;1.20;;
8230;SDS011;4156;50.908;6.974;2024-02-26T03:01:10;1.70;;;1.37;;
8230;SDS011;4156;50.908;6.974;2024-02-26T03:03:36;2.53;;;1.20;;
8230;SDS011;4156;50.908;6.974;2024-02-26T03:06:02;1.10;;;1.10;;
8230;SDS011;4156;50.908;6.974;2024-02-26T03:08:29;1.40;;;1.30;;
8230;SDS011;4156;50.908;6.974;2024-02-26T03:10:55;1.40;;;1.30;;
8230;SDS011;4156;50.908;6.974;2024-02-26T03:13:21;2.03;;;1.23;;
8230;SDS011;4156;50.908;6.974;2024-02-26T03:15:47;1.47;;;1.37;;
8230;SDS011;4156;50.908;6.974;2024-02-26T03:18:13;1.30;;;1.20;;
8230;SDS011;4156;50.908;6.974;2024-02-26T03:20:39;1.43;;;1.33;;
8230;SDS011;4156;50.908;6.974;2024-02-26T03:23:04;2.77;;;1.07;;
8230;SDS011;4156;50.908;6.974;2024-02-26T03:25:30;3.20;;;1.57;;
8230;SDS011;4156;50.908;6.974;2024-02-26T03:27:56;1.90;;;1.40;;
8230;SDS011;4156;50.908;6.974;2024-02-26T03:30:22;3.23;;;1.30;;
8230;SDS011;4156;50.908;6.974;2024-02-26T03:32:48;1.50;;;1.30;;
8230;SDS011;4156;50.908;6.974;2024-02-26T03:35:14;1.30;;;1.20;;
8230;SDS011;4156;50.908;6.974;2024-02-26T03:37:40;1.80;;;1.30;;
8230;SDS011;4156;50.908;6.974;2024-02-26T03:40:06;1.37;;;1.27;;
8230;SDS011;4156;50.908;6.974;2024-02-26T03:42:33;1.33;;;1.23;;
8230;SDS011;4156;50.908;6.974;2024-02-26T03:44:58;1.40;;;1.30;;
8230;SDS011;4156;50.908;6.974;2024-02-26T03:47:24;1.43;;;1.33;;
8230;SDS011;4156;50.908;6.974;2024-02-26T03:49:50;2.60;;;1.50;;
8230;SDS011;4156;50.908;6.974;2024-02-26T03:52:16;1.63;;;1.20;;
8230;SDS011;4156;50.908;6.974;2024-02-26T03:54:42;1.43;;;1.33;;
8230;SDS011;4156;50.908;6.974;2024-02-26T03:57:08;1.83;;;1.40;;
8230;SDS011;4156;50.908;6.974;2024-02-26T03:59:34;1.80;;;1.40;;
8230;SDS011;4156;50.908;6.974;2024-02-26T04:02:00;1.57;;;1.20;;
8230;SDS011;4156;50.908;6.974;2024-02-26T04:04:27;1.47;;;1.33;;
8230;SDS011;4156;50.908;6.974;2024-02-26T04:06:53;4.37;;;2.23;;
8230;SDS011;4156;50.908;6.974;2024-02-26T04:09:19;3.17;;;1.30;;
8230;SDS011;4156;50.908;6.974;2024-02-26T04:11:45;1.53;;;1.20;;
8230;SDS011;4156;50.908;6.974;2024-02-26T04:14:11;1.47;;;1.37;;
8230;SDS011;4156;50.908;6.974;2024-02-26T04:16:37;2.23;;;1.50;;
8230;SDS011;4156;50.908;6.974;2024-02-26T04:19:04;2.63;;;1.50;;
8230;SDS011;4156;50.908;6.974;2024-02-26T04:21:30;1.70;;;1.57;;
8230;SDS011;4156;50.908;6.974;2024-02-26T04:23:55;1.60;;;1.50;;
8230;SDS011;4156;50.908;6.974;2024-02-26T04:26:22;1.40;;;1.30;;
8230;SDS011;4156;50.908;6.974;2024-02-26T04:28:47;2.83;;;1.43;;
8230;SDS011;4156;50.908;6.974;2024-02-26T04:31:13;1.90;;;1.40;;
8230;SDS011;4156;50.908;6.974;2024-02-26T04:33:39;2.00;;;1.47;;
8230;SDS011;4156;50.908;6.974;2024-02-26T04:36:11;1.43;;;1.33;;
8230;SDS011;4156;50.908;6.974;2024-02-26T04:38:37;2.10;;;1.60;;
8230;SDS011;4156;50.908;6.974;2024-02-26T04:41:03;4.30;;;1.60;;
8230;SDS011;4156;50.908;6.974;2024-02-26T04:43:29;2.17;;;1.40;;
8230;SDS011;4156;50.908;6.974;2024-02-26T04:45:55;2.90;;;1.53;;
8230;SDS011;4156;50.908;6.974;2024-02-26T04:48:22;4.47;;;1.50;;
8230;SDS011;4156;50.908;6.974;2024-02-26T04:50:48;1.77;;;1.27;;
8230;SDS011;4156;50.908;6.974;2024-02-26T04:53:14;1.30;;;1.20;;
8230;SDS011;4156;50.908;6.974;2024-02-26T04:55:40;1.60;;;1.50;;
8230;SDS011;4156;50.908;6.974;2024-02-26T04:58:06;2.30;;;1.63;;
8230;SDS011;4156;50.908;6.974;2024-02-26T05:00:32;3.30;;;1.30;;
8230;SDS011;4156;50.908;6.974;2024-02-26T05:02:57;2.53;;;1.60;;
8230;SDS011;4156;50.908;6.974;2024-02-26T05:05:23;2.37;;;1.40;;
8230;SDS011;4156;50.908;6.974;2024-02-26T05:07:49;1.93;;;1.53;;
8230;SDS011;4156;50.908;6.974;2024-02-26T05:10:15;2.03;;;1.53;;
8230;SDS011;4156;50.908;6.974;2024-02-26T05:12:41;3.43;;;1.57;;
8230;SDS011;4156;50.908;6.974;2024-02-26T05:15:08;2.70;;;1.80;;
8230;SDS011;4156;50.908;6.974;2024-02-26T05:17:34;1.93;;;1.80;;
8230;SDS011;4156;50.908;6.974;2024-02-26T05:20:00;2.30;;;1.70;;
8230;SDS011;4156;50.908;6.974;2024-02-26T05:22:26;1.57;;;1.40;;
8230;SDS011;4156;50.908;6.974;2024-02-26T05:24:52;1.60;;;1.50;;
8230;SDS011;4156;50.908;6.974;2024-02-26T05:27:18;2.37;;;1.70;;
8230;SDS011;4156;50.908;6.974;2024-02-26T05:29:44;2.33;;;1.33;;
8230;SDS011;4156;50.908;6.974;2024-02-26T05:32:10;2.50;;;1.70;;
8230;SDS011;4156;50.908;6.974;2024-02-26T05:34:36;2.30;;;1.73;;
8230;SDS011;4156;50.908;6.974;2024-02-26T05:37:02;2.60;;;1.70;;
8230;SDS011;4156;50.908;6.974;2024-02-26T05:39:28;3.37;;;1.90;;
8230;SDS011;4156;50.908;6.974;2024-02-26T05:41:54;2.17;;;1.60;;
8230;SDS011;4156;50.908;6.974;2024-02-26T05:44:22;3.27;;;1.70;;
8230;SDS011;4156;50.908;6.974;2024-02-26T05:46:48;4.83;;;1.87;;
8230;SDS011;4156;50.908;6.974;2024-02-26T05:49:14;2.10;;;1.70;;
8230;SDS011;4156;50.908;6.974;2024-02-26T05:51:40;3.73;;;2.00;;
8230;SDS011;4156;50.908;6.974;2024-02-26T05:54:06;3.63;;;1.73;;
8230;SDS011;4156;50.908;6.974;2024-02-26T05:56:33;1.70;;;1.60;;
8230;SDS011;4156;50.908;6.974;2024-02-26T05:58:59;1.53;;;1.43;;
8230;SDS011;4156;50.908;6.974;2024-02-26T06:01:25;1.73;;;1.60;;
8230;SDS011;4156;50.908;6.974;2024-02-26T06:03:51;3.10;;;1.83;;
8230;SDS011;4156;50.908;6.974;2024-02-26T06:06:17;2.13;;;1.50;;
8230;SDS011;4156;50.908;6.974;2024-02-26T06:08:43;1.47;;;1.37;;
8230;SDS011;4156;50.908;6.974;2024-02-26T06:11:09;2.47;;;1.73;;
8230;SDS011;4156;50.908;6.974;2024-02-26T06:13:35;2.67;;;1.80;;
8230;SDS011;4156;50.908;6.974;2024-02-26T06:16:01;1.97;;;1.70;;
8230;SDS011;4156;50.908;6.974;2024-02-26T06:18:27;2.73;;;1.83;;
8230;SDS011;4156;50.908;6.974;2024-02-26T06:20:53;2.03;;;1.60;;
8230;SDS011;4156;50.908;6.974;2024-02-26T06:23:19;2.90;;;1.93;;
8230;SDS011;4156;50.908;6.974;2024-02-26T06:25:45;2.07;;;1.80;;
8230;SDS011;4156;50.908;6.974;2024-02-26T06:28:13;3.43;;;2.13;;
8230;SDS011;4156;50.908;6.974;2024-02-26T06:30:38;2.53;;;1.60;;
8230;SDS011;4156;50.908;6.974;2024-02-26T06:33:04;1.70;;;1.60;;
8230;SDS011;4156;50.908;6.974;2024-02-26T06:35:31;1.67;;;1.57;;
8230;SDS011;4156;50.908;6.974;2024-02-26T06:37:57;1.93;;;1.73;;
8230;SDS011;4156;50.908;6.974;2024-02-26T06:40:23;3.40;;;2.00;;
8230;SDS011;4156;50.908;6.974;2024-02-26T06:42:50;1.77;;;1.63;;
8230;SDS011;4156;50.908;6.974;2024-02-26T06:45:16;2.20;;;1.53;;
8230;SDS011;4156;50.908;6.974;2024-02-26T06:47:44;2.37;;;1.90;;
8230;SDS011;4156;50.908;6.974;2024-02-26T06:50:13;2.90;;;2.33;;
8230;SDS011;4156;50.908;6.974;2024-02-26T06:52:39;1.70;;;1.60;;
8230;SDS011;4156;50.908;6.974;2024-02-26T06:55:05;1.70;;;1.60;;
8230;SDS011;4156;50.908;6.974;2024-02-26T06:57:33;1.50;;;1.30;;
8230;SDS011;4156;50.908;6.974;2024-02-26T06:59:59;1.90;;;1.77;;
8230;SDS011;4156;50.908;6.974;2024-02-26T07:02:25;3.00;;;2.17;;
8230;SDS011;4156;50.908;6.974;2024-02-26T07:04:51;2.40;;;1.67;;
8230;SDS011;4156;50.908;6.974;2024-02-26T07:07:17;3.43;;;1.80;;
8230;SDS011;4156;50.908;6.974;2024-02-26T07:09:43;5.57;;;2.10;;
8230;SDS011;4156;50.908;6.974;2024-02-26T07:12:09;3.13;;;2.03;;
8230;SDS011;4156;50.908;6.974;2024-02-26T07:14:36;2.20;;;1.67;;
8230;SDS011;4156;50.908;6.974;2024-02-26T07:17:02;2.73;;;1.90;;
8230;SDS011;4156;50.908;6.974;2024-02-26T07:19:28;3.17;;;1.90;;
8230;SDS011;4156;50.908;6.974;2024-02-26T07:21:54;2.90;;;2.00;;
8230;SDS011;4156;50.908;6.974;2024-02-26T07:24:20;2.37;;;1.90;;
8230;SDS011;4156;50.908;6.974;2024-02-26T07:26:46;2.70;;;1.90;;
8230;SDS011;4156;50.908;6.974;2024-02-26T07:29:12;1.80;;;1.70;;
8230;SDS011;4156;50.908;6.974;2024-02-26T07:31:38;4.17;;;1.90;;
8230;SDS011;4156;50.908;6.974;2024-02-26T07:34:04;3.03;;;2.03;;
8230;SDS011;4156;50.908;6.974;2024-02-26T07:36:30;2.73;;;1.90;;
8230;SDS011;4156;50.908;6.974;2024-02-26T07:38:56;2.10;;;1.90;;
8230;SDS011;4156;50.908;6.974;2024-02-26T07:41:22;2.57;;;1.73;;
8230;SDS011;4156;50.908;6.974;2024-02-26T07:43:48;2.37;;;2.10;;
8230;SDS011;4156;50.908;6.974;2024-02-26T07:46:14;3.70;;;2.20;;
8230;SDS011;4156;50.908;6.974;2024-02-26T07:48:40;2.27;;;2.00;;
8230;SDS011;4156;50.908;6.974;2024-02-26T07:51:06;4.60;;;2.03;;
8230;SDS011;4156;50.908;6.974;2024-02-26T07:53:32;2.13;;;1.90;;
8230;SDS011;4156;50.908;6.974;2024-02-26T07:55:58;2.47;;;1.87;;
8230;SDS011;4156;50.908;6.974;2024-02-26T07:58:24;4.63;;;3.23;;
8230;SDS011;4156;50.908;6.974;2024-02-26T08:00:50;2.47;;;1.97;;
8230;SDS011;4156;50.908;6.974;2024-02-26T08:03:16;2.60;;;1.83;;
8230;SDS011;4156;50.908;6.974;2024-02-26T08:05:42;2.20;;;1.77;;
8230;SDS011;4156;50.908;6.974;2024-02-26T08:08:08;3.63;;;1.80;;
8230;SDS011;4156;50.908;6.974;2024-02-26T08:10:34;4.43;;;2.27;;
8230;SDS011;4156;50.908;6.974;2024-02-26T08:13:00;2.27;;;1.90;;
8230;SDS011;4156;50.908;6.974;2024-02-26T08:15:32;2.77;;;1.90;;
8230;SDS011;4156;50.908;6.974;2024-02-26T08:17:59;2.70;;;1.87;;
8230;SDS011;4156;50.908;6.974;2024-02-26T08:20:27;2.23;;;1.83;;
8230;SDS011;4156;50.908;6.974;2024-02-26T08:22:53;2.13;;;1.90;;
8230;SDS011;4156;50.908;6.974;2024-02-26T08:25:19;1.80;;;1.70;;
8230;SDS011;4156;50.908;6.974;2024-02-26T08:27:45;3.47;;;2.20;;
8230;SDS011;4156;50.908;6.974;2024-02-26T08:30:12;2.87;;;1.80;;
8230;SDS011;4156;50.908;6.974;2024-02-26T08:32:41;3.80;;;2.10;;
8230;SDS011;4156;50.908;6.974;2024-02-26T08:35:07;3.00;;;1.93;;
8230;SDS011;4156;50.908;6.974;2024-02-26T08:37:33;3.07;;;1.90;;
8230;SDS011;4156;50.908;6.974;2024-02-26T08:39:59;3.97;;;1.90;;
8230;SDS011;4156;50.908;6.974;2024-02-26T08:42:25;2.87;;;2.00;;
8230;SDS011;4156;50.908;6.974;2024-02-26T08:44:51;2.93;;;1.87;;
8230;SDS011;4156;50.908;6.974;2024-02-26T08:47:19;4.27;;;2.30;;
8230;SDS011;4156;50.908;6.974;2024-02-26T08:49:45;2.80;;;2.13;;
8230;SDS011;4156;50.908;6.974;2024-02-26T08:52:11;3.93;;;2.30;;
8230;SDS011;4156;50.908;6.974;2024-02-26T08:54:38;3.13;;;2.10;;
8230;SDS011;4156;50.908;6.974;2024-02-26T08:57:05;2.93;;;2.10;;
8230;SDS011;4156;50.908;6.974;2024-02-26T08:59:31;2.17;;;1.97;;
8230;SDS011;4156;50.908;6.974;2024-02-26T09:01:57;2.10;;;1.87;;
8230;SDS011;4156;50.908;6.974;2024-02-26T09:04:23;2.20;;;1.70;;
8230;SDS011;4156;50.908;6.974;2024-02-26T09:06:49;2.27;;;1.90;;
8230;SDS011;4156;50.908;6.974;2024-02-26T09:09:15;3.00;;;1.90;;
8230;SDS011;4156;50.908;6.974;2024-02-26T09:11:41;2.90;;;2.10;;
8230;SDS011;4156;50.908;6.974;2024-02-26T09:14:07;3.27;;;2.37;;
8230;SDS011;4156;50.908;6.974;2024-02-26T09:16:33;2.30;;;2.10;;
8230;SDS011;4156;50.908;6.974;2024-02-26T09:18:59;3.03;;;2.13;;
8230;SDS011;4156;50.908;6.974;2024-02-26T09:21:25;4.47;;;2.00;;
8230;SDS011;4156;50.908;6.974;2024-02-26T09:23:51;2.33;;;1.97;;
8230;SDS011;4156;50.908;6.974;2024-02-26T09:26:17;2.60;;;2.00;;
8230;SDS011;4156;50.908;6.974;2024-02-26T09:28:44;2.50;;;2.17;;
8230;SDS011;4156;50.908;6.974;2024-02-26T09:31:11;4.10;;;2.23;;
8230;SDS011;4156;50.908;6.974;2024-02-26T09:33:37;3.60;;;2.33;;
8230;SDS011;4156;50.908;6.974;2024-02-26T09:36:03;3.03;;;2.20;;
8230;SDS011;4156;50.908;6.974;2024-02-26T09:38:31;2.50;;;2.07;;
8230;SDS011;4156;50.908;6.974;2024-02-26T09:41:02;4.80;;;2.23;;
8230;SDS011;4156;50.908;6.974;2024-02-26T09:43:28;2.27;;;2.03;;
8230;SDS011;4156;50.908;6.974;2024-02-26T09:45:59;5.40;;;2.10;;
8230;SDS011;4156;50.908;6.974;2024-02-26T09:48:26;3.57;;;2.33;;
8230;SDS011;4156;50.908;6.974;2024-02-26T09:50:52;3.40;;;2.20;;
8230;SDS011;4156;50.908;6.974;2024-02-26T09:53:18;3.40;;;2.27;;
8230;SDS011;4156;50.908;6.974;2024-02-26T09:55:47;2.73;;;2.43;;
8230;SDS011;4156;50.908;6.974;2024-02-26T09:58:13;2.33;;;2.10;;
8230;SDS011;4156;50.908;6.974;2024-02-26T10:00:43;3.83;;;2.33;;
8230;SDS011;4156;50.908;6.974;2024-02-26T10:03:12;4.03;;;2.47;;
8230;SDS011;4156;50.908;6.974;2024-02-26T10:05:40;2.53;;;2.20;;
8230;SDS011;4156;50.908;6.974;2024-02-26T10:08:07;2.13;;;1.93;;
8230;SDS011;4156;50.908;6.974;2024-02-26T10:10:34;3.83;;;2.30;;
8230;SDS011;4156;50.908;6.974;2024-02-26T10:13:00;4.23;;;2.37;;
8230;SDS011;4156;50.908;6.974;2024-02-26T10:15:26;2.63;;;2.30;;
8230;SDS011;4156;50.908;6.974;2024-02-26T10:17:52;4.03;;;2.63;;
8230;SDS011;4156;50.908;6.974;2024-02-26T10:20:18;3.20;;;2.33;;
8230;SDS011;4156;50.908;6.974;2024-02-26T10:22:48;3.97;;;2.67;;
8230;SDS011;4156;50.908;6.974;2024-02-26T10:25:14;3.57;;;2.70;;
8230;SDS011;4156;50.908;6.974;2024-02-26T10:27:40;2.47;;;1.97;;
8230;SDS011;4156;50.908;6.974;2024-02-26T10:30:17;3.27;;;2.47;;
8230;SDS011;4156;50.908;6.974;2024-02-26T10:32:47;3.03;;;2.30;;
8230;SDS011;4156;50.908;6.974;2024-02-26T10:35:13;3.47;;;2.47;;
8230;SDS011;4156;50.908;6.974;2024-02-26T10:37:41;4.20;;;2.53;;
8230;SDS011;4156;50.908;6.974;2024-02-26T10:40:10;2.97;;;2.20;;
8230;SDS011;4156;50.908;6.974;2024-02-26T10:42:37;2.93;;;2.20;;
8230;SDS011;4156;50.908;6.974;2024-02-26T10:45:06;4.70;;;2.10;;
8230;SDS011;4156;50.908;6.974;2024-02-26T10:47:34;3.07;;;2.10;;
8230;SDS011;4156;50.908;6.974;2024-02-26T10:50:01;2.87;;;2.23;;
8230;SDS011;4156;50.908;6.974;2024-02-26T10:52:27;3.40;;;2.40;;
8230;SDS011;4156;50.908;6.974;2024-02-26T10:54:57;3.60;;;2.20;;
8230;SDS011;4156;50.908;6.974;2024-02-26T10:57:27;2.70;;;2.03;;
8230;SDS011;4156;50.908;6.974;2024-02-26T10:59:57;4.70;;;2.27;;
8230;SDS011;4156;50.908;6.974;2024-02-26T11:02:23;3.13;;;2.27;;
8230;SDS011;4156;50.908;6.974;2024-02-26T11:04:49;3.03;;;2.07;;
8230;SDS011;4156;50.908;6.974;2024-02-26T11:07:15;2.40;;;2.20;;
8230;SDS011;4156;50.908;6.974;2024-02-26T11:09:41;3.40;;;2.50;;
8230;SDS011;4156;50.908;6.974;2024-02-26T11:12:10;2.90;;;2.30;;
8230;SDS011;4156;50.908;6.974;2024-02-26T11:14:38;4.67;;;2.70;;
8230;SDS011;4156;50.908;6.974;2024-02-26T11:17:04;3.37;;;2.40;;
8230;SDS011;4156;50.908;6.974;2024-02-26T11:19:31;3.00;;;2.50;;
8230;SDS011;4156;50.908;6.974;2024-02-26T11:22:00;3.00;;;2.40;;
8230;SDS011;4156;50.908;6.974;2024-02-26T11:24:26;5.10;;;2.60;;
8230;SDS011;4156;50.908;6.974;2024-02-26T11:26:56;3.03;;;2.50;;
8230;SDS011;4156;50.908;6.974;2024-02-26T11:29:31;3.43;;;2.13;;
8230;SDS011;4156;50.908;6.974;2024-02-26T11:31:59;3.83;;;2.40;;
8230;SDS011;4156;50.908;6.974;2024-02-26T11:34:25;2.30;;;2.10;;
8230;SDS011;4156;50.908;6.974;2024-02-26T11:36:51;2.83;;;2.40;;
8230;SDS011;4156;50.908;6.974;2024-02-26T11:39:18;3.10;;;2.30;;
8230;SDS011;4156;50.908;6.974;2024-02-26T11:41:44;3.40;;;2.10;;
8230;SDS011;4156;50.908;6.974;2024-02-26T11:44:10;2.93;;;2.33;;
8230;SDS011;4156;50.908;6.974;2024-02-26T11:46:39;2.90;;;2.33;;
8230;SDS011;4156;50.908;6.974;2024-02-26T11:51:51;3.03;;;2.10;;
8230;SDS011;4156;50.908;6.974;2024-02-26T11:57:01;2.57;;;2.37;;
8230;SDS011;4156;50.908;6.974;2024-02-26T11:59:37;3.33;;;2.10;;
8230;SDS011;4156;50.908;6.974;2024-02-26T12:02:03;4.07;;;2.33;;
8230;SDS011;4156;50.908;6.974;2024-02-26T12:04:30;3.23;;;2.40;;
8230;SDS011;4156;50.908;6.974;2024-02-26T12:06:57;3.37;;;2.50;;
8230;SDS011;4156;50.908;6.974;2024-02-26T12:09:41;3.97;;;2.40;;
8230;SDS011;4156;50.908;6.974;2024-02-26T12:12:07;3.33;;;2.27;;
8230;SDS011;4156;50.908;6.974;2024-02-26T12:14:38;3.07;;;2.30;;
8230;SDS011;4156;50.908;6.974;2024-02-26T12:17:04;4.00;;;2.47;;
8230;SDS011;4156;50.908;6.974;2024-02-26T12:19:34;3.63;;;2.40;;
8230;SDS011;4156;50.908;6.974;2024-02-26T12:22:01;2.63;;;2.13;;
8230;SDS011;4156;50.908;6.974;2024-02-26T12:24:27;2.57;;;2.13;;
8230;SDS011;4156;50.908;6.974;2024-02-26T12:26:53;2.90;;;2.37;;
8230;SDS011;4156;50.908;6.974;2024-02-26T12:29:19;2.63;;;2.20;;
8230;SDS011;4156;50.908;6.974;2024-02-26T12:31:46;3.90;;;2.20;;
8230;SDS011;4156;50.908;6.974;2024-02-26T12:34:13;2.70;;;2.30;;
8230;SDS011;4156;50.908;6.974;2024-02-26T12:36:40;2.70;;;2.50;;
8230;SDS011;4156;50.908;6.974;2024-02-26T12:39:07;3.37;;;2.60;;
8230;SDS011;4156;50.908;6.974;2024-02-26T12:41:34;4.13;;;2.43;;
8230;SDS011;4156;50.908;6.974;2024-02-26T12:44:00;5.20;;;2.60;;
8230;SDS011;4156;50.908;6.974;2024-02-26T12:46:26;2.73;;;2.30;;
8230;SDS011;4156;50.908;6.974;2024-02-26T12:48:52;3.73;;;2.40;;
8230;SDS011;4156;50.908;6.974;2024-02-26T12:51:22;3.40;;;2.47;;
8230;SDS011;4156;50.908;6.974;2024-02-26T12:53:49;3.53;;;2.53;;
8230;SDS011;4156;50.908;6.974;2024-02-26T12:56:17;3.10;;;2.43;;
8230;SDS011;4156;50.908;6.974;2024-02-26T12:58:43;3.97;;;2.60;;
8230;SDS011;4156;50.908;6.974;2024-02-26T13:01:13;3.10;;;2.40;;
8230;SDS011;4156;50.908;6.974;2024-02-26T13:03:39;3.53;;;2.70;;
8230;SDS011;4156;50.908;6.974;2024-02-26T13:06:06;3.13;;;2.57;;
8230;SDS011;4156;50.908;6.974;2024-02-26T13:08:32;5.40;;;2.40;;
8230;SDS011;4156;50.908;6.974;2024-02-26T13:10:58;2.90;;;2.60;;
8230;SDS011;4156;50.908;6.974;2024-02-26T13:13:24;3.07;;;2.33;;
8230;SDS011;4156;50.908;6.974;2024-02-26T13:16:00;5.43;;;2.80;;
8230;SDS011;4156;50.908;6.974;2024-02-26T13:18:27;3.93;;;2.67;;
8230;SDS011;4156;50.908;6.974;2024-02-26T13:21:05;2.50;;;2.30;;
8230;SDS011;4156;50.908;6.974;2024-02-26T13:23:31;3.57;;;2.40;;
8230;SDS011;4156;50.908;6.974;2024-02-26T13:25:57;3.93;;;2.53;;
8230;SDS011;4156;50.908;6.974;2024-02-26T13:28:23;5.10;;;3.00;;
8230;SDS011;4156;50.908;6.974;2024-02-26T13:30:52;6.10;;;3.00;;
8230;SDS011;4156;50.908;6.974;2024-02-26T13:33:21;4.40;;;2.80;;
8230;SDS011;4156;50.908;6.974;2024-02-26T13:35:47;3.30;;;2.60;;
8230;SDS011;4156;50.908;6.974;2024-02-26T13:38:13;4.60;;;2.90;;
8230;SDS011;4156;50.908;6.974;2024-02-26T13:40:39;2.97;;;2.67;;
8230;SDS011;4156;50.908;6.974;2024-02-26T13:43:06;4.27;;;2.87;;
8230;SDS011;4156;50.908;6.974;2024-02-26T13:45:35;4.67;;;2.87;;
8230;SDS011;4156;50.908;6.974;2024-02-26T13:48:02;3.87;;;2.93;;
8230;SDS011;4156;50.908;6.974;2024-02-26T13:50:28;3.63;;;2.80;;
8230;SDS011;4156;50.908;6.974;2024-02-26T13:52:54;4.20;;;2.63;;
8230;SDS011;4156;50.908;6.974;2024-02-26T13:55:27;5.57;;;3.33;;
8230;SDS011;4156;50.908;6.974;2024-02-26T13:57:55;3.50;;;2.77;;
8230;SDS011;4156;50.908;6.974;2024-02-26T14:00:21;3.60;;;2.77;;
8230;SDS011;4156;50.908;6.974;2024-02-26T14:02:47;4.30;;;3.10;;
8230;SDS011;4156;50.908;6.974;2024-02-26T14:05:13;3.37;;;2.63;;
8230;SDS011;4156;50.908;6.974;2024-02-26T14:07:40;5.30;;;3.10;;
8230;SDS011;4156;50.908;6.974;2024-02-26T14:10:06;6.53;;;3.33;;
8230;SDS011;4156;50.908;6.974;2024-02-26T14:12:32;3.73;;;3.00;;
8230;SDS011;4156;50.908;6.974;2024-02-26T14:14:58;4.17;;;3.27;;
8230;SDS011;4156;50.908;6.974;2024-02-26T14:17:25;5.03;;;3.33;;
8230;SDS011;4156;50.908;6.974;2024-02-26T14:19:51;4.23;;;3.17;;
8230;SDS011;4156;50.908;6.974;2024-02-26T14:22:17;3.63;;;2.97;;
8230;SDS011;4156;50.908;6.974;2024-02-26T14:24:43;6.83;;;3.20;;
8230;SDS011;4156;50.908;6.974;2024-02-26T14:27:11;4.20;;;3.30;;
8230;SDS011;4156;50.908;6.974;2024-02-26T14:29:40;3.73;;;3.23;;
8230;SDS011;4156;50.908;6.974;2024-02-26T14:32:08;5.63;;;3.10;;
8230;SDS011;4156;50.908;6.974;2024-02-26T14:34:34;4.57;;;3.40;;
8230;SDS011;4156;50.908;6.974;2024-02-26T14:37:00;4.10;;;3.10;;
8230;SDS011;4156;50.908;6.974;2024-02-26T14:39:26;4.43;;;3.37;;
8230;SDS011;4156;50.908;6.974;2024-02-26T14:41:52;4.17;;;3.20;;
8230;SDS011;4156;50.908;6.974;2024-02-26T14:44:18;5.63;;;4.10;;
8230;SDS011;4156;50.908;6.974;2024-02-26T14:46:44;5.20;;;3.67;;
8230;SDS011;4156;50.908;6.974;2024-02-26T14:49:10;4.10;;;3.43;;
8230;SDS011;4156;50.908;6.974;2024-02-26T14:51:37;5.67;;;3.40;;
8230;SDS011;4156;50.908;6.974;2024-02-26T14:54:03;5.07;;;3.83;;
8230;SDS011;4156;50.908;6.974;2024-02-26T14:56:29;5.30;;;3.97;;
8230;SDS011;4156;50.908;6.974;2024-02-26T14:58:55;5.23;;;4.17;;
8230;SDS011;4156;50.908;6.974;2024-02-26T15:01:21;4.07;;;3.60;;
8230;SDS011;4156;50.908;6.974;2024-02-26T15:03:47;5.47;;;4.20;;
8230;SDS011;4156;50.908;6.974;2024-02-26T15:06:13;6.03;;;4.03;;
8230;SDS011;4156;50.908;6.974;2024-02-26T15:08:39;4.80;;;3.60;;
8230;SDS011;4156;50.908;6.974;2024-02-26T15:11:05;6.20;;;3.90;;
8230;SDS011;4156;50.908;6.974;2024-02-26T15:13:32;4.87;;;3.63;;
8230;SDS011;4156;50.908;6.974;2024-02-26T15:15:58;5.07;;;3.90;;